createdAt,value
2019-05-16T00:01:38.538Z,30.47
2019-05-16T00:04:08.759Z,30.46
2019-05-16T00:06:39.203Z,30.52
2019-05-16T00:11:51.854Z,30.24
2019-05-16T00:14:20.782Z,30.34
2019-05-16T00:16:49.784Z,30.40
2019-05-16T00:19:19.017Z,30.40
2019-05-16T00:21:48.691Z,30.52
2019-05-16T00:24:18.789Z,30.57
2019-05-16T00:26:47.958Z,30.68
2019-05-16T00:29:18.390Z,30.68
2019-05-16T00:33:01.662Z,30.44
2019-05-16T00:35:31.643Z,30.52
2019-05-16T00:37:59.753Z,30.67
2019-05-16T00:42:08.776Z,30.71
2019-05-16T00:44:38.734Z,30.49
2019-05-16T00:47:08.707Z,30.71
2019-05-16T00:49:38.600Z,30.71
2019-05-16T00:52:07.886Z,30.82
2019-05-16T00:54:38.531Z,30.82
2019-05-16T00:57:09.044Z,30.73
2019-05-16T00:59:39.954Z,30.86
2019-05-16T01:02:09.151Z,30.86
2019-05-16T01:05:14.478Z,30.73
2019-05-16T01:07:44.157Z,30.70
2019-05-16T01:10:18.133Z,30.81
2019-05-16T01:12:48.025Z,30.77
2019-05-16T01:15:18.868Z,30.77
2019-05-16T01:18:28.520Z,30.96
2019-05-16T01:20:58.797Z,30.96
2019-05-16T01:23:30.351Z,30.96
2019-05-16T01:25:59.045Z,31.01
2019-05-16T01:28:28.803Z,30.87
2019-05-16T01:30:57.999Z,30.90
2019-05-16T01:33:28.093Z,31.20
2019-05-16T01:35:58.491Z,31.20
2019-05-16T01:38:28.481Z,30.98
2019-05-16T01:40:58.309Z,31.01
2019-05-16T01:43:28.875Z,31.05
2019-05-16T01:45:57.796Z,31.10
2019-05-16T01:48:28.985Z,31.01
2019-05-16T01:50:58.411Z,31.01
2019-05-16T01:53:28.451Z,31.11
2019-05-16T01:55:58.118Z,31.11
2019-05-16T01:58:29.130Z,31.14
2019-05-16T02:01:10.466Z,31.03
2019-05-16T02:03:30.399Z,31.03
2019-05-16T02:05:59.744Z,31.30
2019-05-16T02:08:29.689Z,31.44
2019-05-16T02:10:59.411Z,31.09
2019-05-16T02:13:30.766Z,31.11
2019-05-16T02:16:02.557Z,31.24
2019-05-16T02:18:31.662Z,31.18
2019-05-16T02:21:01.683Z,31.18
2019-05-16T02:23:30.616Z,31.33
2019-05-16T02:26:02.296Z,31.33
2019-05-16T02:28:39.782Z,31.22
2019-05-16T02:33:14.163Z,31.22
2019-05-16T02:35:42.286Z,31.25
2019-05-16T02:38:11.788Z,31.27
2019-05-16T02:40:41.917Z,31.31
2019-05-16T02:43:12.526Z,31.31
2019-05-16T02:47:55.357Z,31.24
2019-05-16T02:50:24.410Z,31.24
2019-05-16T02:52:52.149Z,31.00
2019-05-16T02:55:21.857Z,31.00
2019-05-16T02:57:51.306Z,31.07
2019-05-16T03:00:33.239Z,31.14
2019-05-16T03:03:02.311Z,31.19
2019-05-16T03:05:31.248Z,31.26
2019-05-16T03:08:01.302Z,31.26
2019-05-16T03:10:31.182Z,31.34
2019-05-16T03:13:00.857Z,31.35
2019-05-16T03:15:30.909Z,31.25
2019-05-16T03:18:00.446Z,31.24
2019-05-16T03:20:31.907Z,31.26
2019-05-16T03:23:02.250Z,31.23
2019-05-16T03:25:31.415Z,31.08
2019-05-16T03:28:01.848Z,31.29
2019-05-16T03:30:34.924Z,31.31
2019-05-16T03:33:04.769Z,31.30
2019-05-16T03:35:33.964Z,31.30
2019-05-16T03:38:05.559Z,31.22
2019-05-16T03:40:32.017Z,31.18
2019-05-16T03:43:01.584Z,31.30
2019-05-16T03:45:32.040Z,31.14
2019-05-16T03:48:02.812Z,31.23
2019-05-16T03:50:30.810Z,31.25
2019-05-16T03:53:01.514Z,31.25
2019-05-16T03:55:32.357Z,31.20
2019-05-16T03:58:01.134Z,31.20
2019-05-16T04:00:52.139Z,31.23
2019-05-16T04:03:21.448Z,31.23
2019-05-16T04:05:52.662Z,31.29
2019-05-16T04:08:24.774Z,31.44
2019-05-16T04:10:52.072Z,31.44
2019-05-16T04:13:22.178Z,31.33
2019-05-16T04:15:52.402Z,31.29
2019-05-16T04:19:51.294Z,31.30
2019-05-16T04:22:21.449Z,31.30
2019-05-16T04:24:51.293Z,31.35
2019-05-16T04:27:21.221Z,31.24
2019-05-16T04:29:51.338Z,31.24
2019-05-16T04:32:20.872Z,31.12
2019-05-16T04:34:50.936Z,31.13
2019-05-16T04:37:24.063Z,31.15
2019-05-16T04:39:50.748Z,31.28
2019-05-16T04:42:21.406Z,30.99
2019-05-16T04:44:51.566Z,30.99
2019-05-16T04:47:21.083Z,31.10
2019-05-16T04:49:51.784Z,30.81
2019-05-16T04:52:21.525Z,30.96
2019-05-16T04:54:51.208Z,30.85
2019-05-16T04:57:20.969Z,30.99
2019-05-16T04:59:50.849Z,31.06
2019-05-16T05:02:21.380Z,31.06
2019-05-16T05:04:50.899Z,30.95
2019-05-16T05:07:20.659Z,30.86
2019-05-16T05:09:51.160Z,30.87
2019-05-16T05:12:20.815Z,30.64
2019-05-16T05:14:50.800Z,30.64
2019-05-16T05:17:17.145Z,30.40
2019-05-16T05:19:45.237Z,30.23
2019-05-16T05:23:41.807Z,30.72
2019-05-16T05:26:10.897Z,30.54
2019-05-16T05:28:40.181Z,30.54
2019-05-16T05:31:10.619Z,30.32
2019-05-16T05:33:41.374Z,30.31
2019-05-16T05:36:12.026Z,30.32
2019-05-16T05:38:40.196Z,30.32
2019-05-16T05:41:10.564Z,30.05
2019-05-16T05:43:39.741Z,30.05
2019-05-16T05:46:10.928Z,30.37
2019-05-16T05:48:40.891Z,30.46
2019-05-16T05:51:11.237Z,30.51
2019-05-16T05:53:40.205Z,30.48
2019-05-16T05:56:11.279Z,30.48
2019-05-16T05:58:37.761Z,30.53
2019-05-16T06:01:05.872Z,30.48
2019-05-16T06:03:33.931Z,30.40
2019-05-16T06:06:02.069Z,30.41
2019-05-16T06:08:30.851Z,30.41
2019-05-16T06:11:00.791Z,30.06
2019-05-16T06:13:31.622Z,29.96
2019-05-16T06:16:00.349Z,29.88
2019-05-16T06:18:30.811Z,29.98
2019-05-16T06:21:00.472Z,29.98
2019-05-16T06:23:31.099Z,30.16
2019-05-16T06:26:00.428Z,30.16
2019-05-16T06:28:30.771Z,30.10
2019-05-16T06:31:01.843Z,30.65
2019-05-16T06:33:30.564Z,30.65
2019-05-16T06:36:00.251Z,30.96
2019-05-16T06:38:30.146Z,30.28
2019-05-16T06:41:00.070Z,30.28
2019-05-16T06:43:30.052Z,29.89
2019-05-16T06:46:00.338Z,29.78
2019-05-16T06:48:30.423Z,30.43
2019-05-16T06:51:02.562Z,30.53
2019-05-16T06:53:29.905Z,30.61
2019-05-16T06:56:00.192Z,30.60
2019-05-16T06:58:30.224Z,30.60
2019-05-16T07:01:00.422Z,30.68
2019-05-16T07:03:30.844Z,30.68
2019-05-16T07:06:00.534Z,30.80
2019-05-16T07:08:31.044Z,30.88
2019-05-16T07:10:59.998Z,30.88
2019-05-16T07:13:30.429Z,30.19
2019-05-16T07:16:00.460Z,30.30
2019-05-16T07:18:30.735Z,30.32
2019-05-16T07:21:00.026Z,30.49
2019-05-16T07:23:29.661Z,30.49
2019-05-16T07:25:57.944Z,30.08
2019-05-16T07:28:25.211Z,30.08
2019-05-16T07:30:53.742Z,29.89
2019-05-16T07:33:22.605Z,29.78
2019-05-16T07:35:51.639Z,29.72
2019-05-16T07:38:20.249Z,29.71
2019-05-16T07:40:51.259Z,29.62
2019-05-16T07:43:20.583Z,29.62
2019-05-16T07:45:51.313Z,29.39
2019-05-16T07:48:21.662Z,29.54
2019-05-16T07:50:50.036Z,29.54
2019-05-16T07:53:21.128Z,29.15
2019-05-16T07:55:50.864Z,29.15
2019-05-16T07:58:21.832Z,29.17
2019-05-16T08:00:57.787Z,29.17
2019-05-16T08:03:19.947Z,29.32
2019-05-16T08:05:51.294Z,29.00
2019-05-16T08:08:23.259Z,28.97
2019-05-16T08:10:51.271Z,28.97
2019-05-16T08:13:21.039Z,28.85
2019-05-16T08:15:50.696Z,28.74
2019-05-16T08:18:21.373Z,28.74
2019-05-16T08:20:52.015Z,28.65
2019-05-16T08:23:21.855Z,28.75
2019-05-16T08:26:40.014Z,28.98
2019-05-16T08:31:15.543Z,28.63
2019-05-16T08:33:43.619Z,28.65
2019-05-16T08:36:12.184Z,28.54
2019-05-16T08:38:43.010Z,28.60
2019-05-16T08:43:41.444Z,28.70
2019-05-16T08:46:12.357Z,28.32
2019-05-16T08:48:42.249Z,28.41
2019-05-16T08:50:09.836Z,28.70
2019-05-16T08:51:12.123Z,28.67
2019-05-16T08:56:12.403Z,28.63
2019-05-16T08:58:41.029Z,28.73
2019-05-16T09:02:06.754Z,28.71
2019-05-16T09:04:34.728Z,28.71
2019-05-16T09:07:03.987Z,28.65
2019-05-16T09:09:42.771Z,28.71
2019-05-16T09:10:31.817Z,28.67
2019-05-16T09:12:03.616Z,28.71
2019-05-16T09:14:35.358Z,28.15
2019-05-16T09:17:02.015Z,28.19
2019-05-16T09:19:31.537Z,28.19
2019-05-16T09:21:59.450Z,28.28
2019-05-16T09:24:27.367Z,28.14
2019-05-16T09:26:57.876Z,28.00
2019-05-16T09:29:27.752Z,27.92
2019-05-16T09:32:11.342Z,27.66
2019-05-16T09:37:08.521Z,27.89
2019-05-16T09:39:37.173Z,27.65
2019-05-16T09:42:08.003Z,27.77
2019-05-16T09:44:36.997Z,27.77
2019-05-16T09:47:07.559Z,28.02
2019-05-16T09:49:37.094Z,28.02
2019-05-16T09:52:07.435Z,28.00
2019-05-16T09:54:34.705Z,27.84
2019-05-16T09:57:02.471Z,27.84
2019-05-16T09:59:31.158Z,27.80
2019-05-16T10:01:59.530Z,27.79
2019-05-16T10:04:28.098Z,27.79
2019-05-16T10:06:57.367Z,27.79
2019-05-16T10:09:38.538Z,27.78
2019-05-16T10:12:08.244Z,27.71
2019-05-16T10:14:26.868Z,27.71
2019-05-16T10:16:54.592Z,27.84
2019-05-16T10:19:23.134Z,27.85
2019-05-16T10:21:52.202Z,27.84
2019-05-16T10:24:19.478Z,27.29
2019-05-16T10:26:53.654Z,27.32
2019-05-16T10:29:18.282Z,27.40
2019-05-16T10:31:52.609Z,27.30
2019-05-16T10:34:17.388Z,27.30
2019-05-16T10:36:47.181Z,27.60
2019-05-16T10:39:14.569Z,27.63
2019-05-16T10:42:06.926Z,27.35
2019-05-16T10:44:38.395Z,27.44
2019-05-16T10:47:07.543Z,27.39
2019-05-16T10:49:41.417Z,27.38
2019-05-16T10:52:08.638Z,27.42
2019-05-16T10:54:37.310Z,27.51
2019-05-16T10:57:08.217Z,26.95
2019-05-16T10:59:57.757Z,26.79
2019-05-16T11:02:08.465Z,26.95
2019-05-16T11:04:52.829Z,26.95
2019-05-16T11:07:07.012Z,26.82
2019-05-16T11:09:39.167Z,27.22
2019-05-16T11:12:04.807Z,27.22
2019-05-16T11:14:33.196Z,26.81
2019-05-16T11:17:00.869Z,26.81
2019-05-16T11:19:29.774Z,26.89
2019-05-16T11:21:59.068Z,26.89
2019-05-16T11:24:29.339Z,26.73
2019-05-16T11:26:57.413Z,27.24
2019-05-16T11:29:26.866Z,27.86
2019-05-16T11:31:57.262Z,27.86
2019-05-16T11:34:26.627Z,27.46
2019-05-16T11:36:57.025Z,27.36
2019-05-16T11:39:26.561Z,27.42
2019-05-16T11:41:57.147Z,27.42
2019-05-16T11:44:28.361Z,27.54
2019-05-16T11:46:57.594Z,27.45
2019-05-16T11:49:27.594Z,27.63
2019-05-16T11:51:57.894Z,27.43
2019-05-16T11:54:26.772Z,27.33
2019-05-16T11:56:57.057Z,27.33
2019-05-16T11:59:25.481Z,27.61
2019-05-16T12:01:53.284Z,27.61
2019-05-16T12:04:21.012Z,27.67
2019-05-16T12:06:48.366Z,27.78
2019-05-16T12:09:17.818Z,28.10
2019-05-16T12:11:46.216Z,27.88
2019-05-16T12:14:16.474Z,27.91
2019-05-16T12:16:47.017Z,27.77
2019-05-16T12:19:14.017Z,27.77
2019-05-16T12:21:41.272Z,28.09
2019-05-16T12:24:08.834Z,28.09
2019-05-16T12:26:37.677Z,28.12
2019-05-16T12:29:07.017Z,27.70
2019-05-16T12:31:37.364Z,27.70
2019-05-16T12:34:08.989Z,26.74
2019-05-16T12:36:37.750Z,26.58
2019-05-16T12:39:07.951Z,26.52
2019-05-16T12:41:41.167Z,26.64
2019-05-16T12:44:07.843Z,26.75
2019-05-16T12:46:36.529Z,26.75
2019-05-16T12:49:22.505Z,27.29
2019-05-16T12:51:51.608Z,27.09
2019-05-16T12:59:02.318Z,26.30
2019-05-16T13:01:34.371Z,25.73
2019-05-16T13:04:03.545Z,25.47
2019-05-16T13:06:31.050Z,25.47
2019-05-16T13:09:00.164Z,26.74
2019-05-16T13:11:29.975Z,28.46
2019-05-16T13:14:06.255Z,28.46
2019-05-16T13:16:29.724Z,29.46
2019-05-16T13:18:57.813Z,28.70
2019-05-16T13:21:27.685Z,29.04
2019-05-16T13:23:57.388Z,29.04
2019-05-16T13:26:26.186Z,27.72
2019-05-16T13:28:53.815Z,27.90
2019-05-16T13:31:23.403Z,28.27
2019-05-16T13:33:51.075Z,27.54
2019-05-16T13:36:19.095Z,27.54
2019-05-16T13:38:48.275Z,27.52
2019-05-16T13:41:18.470Z,27.23
2019-05-16T13:43:47.283Z,26.75
2019-05-16T13:46:17.186Z,26.38
2019-05-16T13:48:46.938Z,26.56
2019-05-16T13:51:19.096Z,26.32
2019-05-16T13:53:47.419Z,26.32
2019-05-16T13:56:17.644Z,26.71
2019-05-16T13:58:46.991Z,27.02
2019-05-16T14:01:17.128Z,27.02
2019-05-16T14:03:48.041Z,26.17
2019-05-16T14:06:18.459Z,27.86
2019-05-16T14:08:46.847Z,26.98
2019-05-16T14:11:14.732Z,26.70
2019-05-16T14:13:42.807Z,27.83
2019-05-16T14:16:10.983Z,26.97
2019-05-16T14:18:39.546Z,27.01
2019-05-16T14:21:08.026Z,27.01
2019-05-16T14:23:38.408Z,26.57
2019-05-16T14:26:07.106Z,26.95
2019-05-16T14:28:37.551Z,27.21
2019-05-16T14:31:07.156Z,28.43
2019-05-16T14:33:36.894Z,28.79
2019-05-16T14:36:07.280Z,28.79
2019-05-16T14:38:37.447Z,28.44
2019-05-16T14:41:07.780Z,28.07
2019-05-16T14:43:36.429Z,28.07
2019-05-16T14:46:07.117Z,29.63
2019-05-16T14:48:37.058Z,29.63
2019-05-16T14:51:05.861Z,28.49
2019-05-16T14:53:34.113Z,28.49
2019-05-16T14:56:02.071Z,27.69
2019-05-16T14:58:30.963Z,27.26
2019-05-16T15:00:59.900Z,26.97
2019-05-16T15:03:29.932Z,26.60
2019-05-16T15:05:59.181Z,26.39
2019-05-16T15:08:27.592Z,26.43
2019-05-16T15:10:58.427Z,26.46
2019-05-16T15:13:27.997Z,26.46
2019-05-16T15:15:57.803Z,26.40
2019-05-16T15:18:27.955Z,26.39
2019-05-16T15:20:58.265Z,26.39
2019-05-16T15:23:29.631Z,26.58
2019-05-16T15:25:59.990Z,27.17
2019-05-16T15:28:30.959Z,27.17
2019-05-16T15:31:01.043Z,27.14
2019-05-16T15:33:30.538Z,27.15
2019-05-16T15:36:00.450Z,27.15
2019-05-16T15:38:30.469Z,27.07
2019-05-16T15:41:00.873Z,27.13
2019-05-16T15:43:31.409Z,27.17
2019-05-16T15:46:01.307Z,27.17
2019-05-16T15:48:31.431Z,27.29
2019-05-16T15:51:00.940Z,27.34
2019-05-16T15:53:30.859Z,27.55
2019-05-16T15:56:00.761Z,27.54
2019-05-16T15:58:31.287Z,27.54
2019-05-16T16:01:00.623Z,27.59
2019-05-16T16:03:29.744Z,28.23
2019-05-16T16:06:00.626Z,28.23
2019-05-16T16:09:13.361Z,28.12
2019-05-16T16:11:43.258Z,28.10
2019-05-16T16:14:12.064Z,28.06
2019-05-16T16:16:42.320Z,28.05
2019-05-16T16:19:12.005Z,28.05
2019-05-16T16:21:41.967Z,26.79
2019-05-16T16:24:11.421Z,26.79
2019-05-16T16:26:41.825Z,26.70
2019-05-16T16:29:12.207Z,26.73
2019-05-16T16:31:41.204Z,26.70
2019-05-16T16:34:11.524Z,26.80
2019-05-16T16:36:41.439Z,26.80
2019-05-16T16:39:27.083Z,27.44
2019-05-16T16:41:57.207Z,27.20
2019-05-16T16:44:27.471Z,27.34
2019-05-16T16:46:57.988Z,27.34
2019-05-16T16:49:28.094Z,28.08
2019-05-16T16:51:57.411Z,28.59
2019-05-16T16:54:27.556Z,28.59
2019-05-16T16:56:58.247Z,28.63
2019-05-16T16:59:28.447Z,30.66
2019-05-16T17:01:58.389Z,30.66
2019-05-16T17:05:13.457Z,30.37
2019-05-16T17:07:42.239Z,30.19
2019-05-16T17:10:11.540Z,30.04
2019-05-16T17:12:42.494Z,30.74
2019-05-16T17:15:13.030Z,30.74
2019-05-16T17:17:42.989Z,30.48
2019-05-16T17:20:13.709Z,30.72
2019-05-16T17:22:43.315Z,30.77
2019-05-16T17:25:12.284Z,30.82
2019-05-16T17:27:41.688Z,30.45
2019-05-16T17:30:17.003Z,30.47
2019-05-16T17:32:46.739Z,30.47
2019-05-16T17:35:18.724Z,30.29
2019-05-16T17:37:47.915Z,30.42
2019-05-16T17:40:18.354Z,30.19
2019-05-16T17:42:48.420Z,30.19
2019-05-16T17:45:18.464Z,30.50
2019-05-16T17:47:48.136Z,30.25
2019-05-16T17:50:17.745Z,30.10
2019-05-16T17:52:48.004Z,30.10
2019-05-16T17:55:17.398Z,30.19
2019-05-16T17:57:47.906Z,30.25
2019-05-16T18:00:25.358Z,30.51
2019-05-16T18:02:49.187Z,30.51
2019-05-16T18:05:18.679Z,30.30
2019-05-16T18:07:49.266Z,30.38
2019-05-16T18:10:19.420Z,30.38
2019-05-16T18:12:49.790Z,30.25
2019-05-16T18:15:22.700Z,30.25
2019-05-16T18:17:51.908Z,30.38
2019-05-16T18:20:22.436Z,30.61
2019-05-16T18:22:52.293Z,30.95
2019-05-16T18:25:23.566Z,30.95
2019-05-16T18:27:53.095Z,31.10
2019-05-16T18:30:27.129Z,30.88
2019-05-16T18:32:56.474Z,30.88
2019-05-16T18:35:27.272Z,30.97
2019-05-16T18:37:57.085Z,30.97
2019-05-16T18:40:27.113Z,30.82
2019-05-16T18:42:57.208Z,30.94
2019-05-16T18:45:27.462Z,31.03
2019-05-16T18:47:57.559Z,31.24
2019-05-16T18:50:27.142Z,31.19
2019-05-16T18:52:57.139Z,31.35
2019-05-16T18:55:27.737Z,31.35
2019-05-16T18:57:57.613Z,31.25
2019-05-16T19:00:27.927Z,31.42
2019-05-16T19:02:56.409Z,31.31
2019-05-16T19:05:27.242Z,31.27
2019-05-16T19:07:57.048Z,31.42
2019-05-16T19:10:26.990Z,31.34
2019-05-16T19:12:59.719Z,30.85
2019-05-16T19:15:28.272Z,31.07
2019-05-16T19:17:58.682Z,31.07
2019-05-16T19:20:27.204Z,31.15
2019-05-16T19:22:58.868Z,30.87
2019-05-16T19:25:28.415Z,31.11
2019-05-16T19:27:58.404Z,31.00
2019-05-16T19:30:27.734Z,31.00
2019-05-16T19:33:41.032Z,31.12
2019-05-16T19:36:11.136Z,31.29
2019-05-16T19:38:41.108Z,31.53
2019-05-16T19:41:11.220Z,31.58
2019-05-16T19:43:42.260Z,31.58
2019-05-16T19:46:12.470Z,31.24
2019-05-16T19:48:46.331Z,31.24
2019-05-16T19:51:16.431Z,31.31
2019-05-16T19:53:47.063Z,31.26
2019-05-16T19:56:17.865Z,31.38
2019-05-16T19:58:47.789Z,31.58
2019-05-16T20:01:17.466Z,31.58
2019-05-16T20:03:47.135Z,31.31
2019-05-16T20:06:17.030Z,31.45
2019-05-16T20:08:45.998Z,31.42
2019-05-16T20:11:16.888Z,31.42
2019-05-16T20:13:47.728Z,31.37
2019-05-16T20:16:18.654Z,31.27
2019-05-16T20:18:48.725Z,31.47
2019-05-16T20:21:18.518Z,31.49
2019-05-16T20:23:47.833Z,31.49
2019-05-16T20:26:16.936Z,31.54
2019-05-16T20:28:47.440Z,31.54
2019-05-16T20:31:17.342Z,32.18
2019-05-16T20:33:47.060Z,32.20
2019-05-16T20:36:17.303Z,32.27
2019-05-16T20:38:46.607Z,32.39
2019-05-16T20:41:17.101Z,32.39
2019-05-16T20:43:47.519Z,32.33
2019-05-16T20:46:16.869Z,32.33
2019-05-16T20:48:46.334Z,32.33
2019-05-16T20:51:16.903Z,32.39
2019-05-16T20:53:49.824Z,32.72
2019-05-16T20:56:19.536Z,32.72
2019-05-16T20:58:49.749Z,32.54
2019-05-16T21:01:19.180Z,32.22
2019-05-16T21:03:49.014Z,32.22
2019-05-16T21:06:18.649Z,32.90
2019-05-16T21:10:46.431Z,32.58
2019-05-16T21:13:17.295Z,32.23
2019-05-16T21:15:47.685Z,32.23
2019-05-16T21:18:17.813Z,32.11
2019-05-16T21:22:10.768Z,32.12
2019-05-16T21:24:40.664Z,32.02
2019-05-16T21:27:10.846Z,32.02
2019-05-16T21:29:39.803Z,32.23
2019-05-16T21:32:13.333Z,32.44
2019-05-16T21:34:42.801Z,32.44
2019-05-16T21:37:17.195Z,32.46
2019-05-16T21:39:43.566Z,32.59
2019-05-16T21:42:16.487Z,32.47
2019-05-16T21:44:46.672Z,32.40
2019-05-16T21:47:16.862Z,32.40
2019-05-16T21:49:47.315Z,32.61
2019-05-16T21:52:18.225Z,32.97
2019-05-16T21:54:48.314Z,32.97
2019-05-16T21:57:19.958Z,32.72
2019-05-16T22:02:20.577Z,32.82
2019-05-16T22:04:50.609Z,32.83
2019-05-16T22:07:32.643Z,32.78
2019-05-16T22:09:51.230Z,32.86
2019-05-16T22:12:40.474Z,32.86
2019-05-16T22:15:10.539Z,32.86
2019-05-16T22:17:41.823Z,32.86
2019-05-16T22:20:12.004Z,32.88
2019-05-16T22:22:42.267Z,32.89
2019-05-16T22:25:11.554Z,33.20
2019-05-16T22:27:41.150Z,33.20
2019-05-16T22:30:13.236Z,32.97
2019-05-16T22:32:43.334Z,33.05
2019-05-16T22:35:12.931Z,32.92
2019-05-16T22:37:52.060Z,33.13
2019-05-16T22:40:13.952Z,33.49
2019-05-16T22:42:42.627Z,33.49
2019-05-16T22:45:13.483Z,33.10
2019-05-16T22:47:42.811Z,33.08
2019-05-16T22:50:12.319Z,33.08
2019-05-16T22:52:42.133Z,33.14
2019-05-16T22:55:11.384Z,33.14
2019-05-16T22:57:40.804Z,33.10
2019-05-16T23:00:13.067Z,32.60
2019-05-16T23:02:42.521Z,33.29
2019-05-16T23:05:11.754Z,33.29
2019-05-16T23:08:10.710Z,33.24
2019-05-16T23:10:41.575Z,33.22
2019-05-16T23:13:11.847Z,33.22
2019-05-16T23:15:40.397Z,33.36
2019-05-16T23:18:09.958Z,33.36
2019-05-16T23:20:39.396Z,33.29
2019-05-16T23:23:08.711Z,33.32
2019-05-16T23:25:37.491Z,33.35
2019-05-16T23:28:07.639Z,33.35
2019-05-16T23:30:38.318Z,33.40
2019-05-16T23:33:07.488Z,33.47
2019-05-16T23:35:37.702Z,33.47
2019-05-16T23:38:18.524Z,33.45
2019-05-16T23:40:38.138Z,33.43
2019-05-16T23:43:07.712Z,33.44
2019-05-16T23:45:37.651Z,33.44
2019-05-16T23:48:10.260Z,33.39
2019-05-16T23:50:37.796Z,33.19
2019-05-16T23:53:07.551Z,33.54
2019-05-16T23:55:37.146Z,33.54
2019-05-16T23:58:07.678Z,33.49
